sensor_id;sensor_type;location;lat;lon;timestamp;pressure;altitude;pressure_sealevel;temperature;humidity
37298;BME280;30517;51.932;4.278;2024-02-26T00:00:55;99937.81;;;8.54;72.29
37298;BME280;30517;51.932;4.278;2024-02-26T00:03:36;99880.16;;;8.28;72.66
37298;BME280;30517;51.932;4.278;2024-02-26T00:06:19;99915.94;;;8.49;72.22
37298;BME280;30517;51.932;4.278;2024-02-26T00:09:00;99926.44;;;8.49;72.40
37298;BME280;30517;51.932;4.278;2024-02-26T00:11:43;99907.25;;;8.43;72.62
37298;BME280;30517;51.932;4.278;2024-02-26T00:14:24;99932.53;;;8.54;72.43
37298;BME280;30517;51.932;4.278;2024-02-26T00:17:10;99892.47;;;8.23;72.55
37298;BME280;30517;51.932;4.278;2024-02-26T00:19:52;99935.19;;;8.50;72.61
37298;BME280;30517;51.932;4.278;2024-02-26T00:22:35;99924.69;;;8.50;72.11
37298;BME280;30517;51.932;4.278;2024-02-26T00:25:16;99948.31;;;8.53;72.41
37298;BME280;30517;51.932;4.278;2024-02-26T00:28:00;99928.28;;;8.35;72.44
37298;BME280;30517;51.932;4.278;2024-02-26T00:30:41;99864.63;;;8.01;73.04
37298;BME280;30517;51.932;4.278;2024-02-26T00:33:22;99917.00;;;8.20;73.00
37298;BME280;30517;51.932;4.278;2024-02-26T00:36:04;99890.97;;;7.88;72.92
37298;BME280;30517;51.932;4.278;2024-02-26T00:38:45;99915.22;;;8.26;72.33
37298;BME280;30517;51.932;4.278;2024-02-26T00:41:31;99937.00;;;8.45;72.95
37298;BME280;30517;51.932;4.278;2024-02-26T00:44:12;99859.44;;;7.94;72.65
37298;BME280;30517;51.932;4.278;2024-02-26T00:46:56;99934.41;;;8.34;73.02
37298;BME280;30517;51.932;4.278;2024-02-26T00:49:37;99914.47;;;8.08;72.52
37298;BME280;30517;51.932;4.278;2024-02-26T00:52:19;99897.09;;;7.87;73.19
37298;BME280;30517;51.932;4.278;2024-02-26T00:55:03;99875.22;;;7.85;73.16
37298;BME280;30517;51.932;4.278;2024-02-26T00:57:47;99941.53;;;8.19;73.49
37298;BME280;30517;51.932;4.278;2024-02-26T01:00:28;99943.31;;;8.16;74.01
37298;BME280;30517;51.932;4.278;2024-02-26T01:03:12;99917.88;;;8.18;73.21
37298;BME280;30517;51.932;4.278;2024-02-26T01:05:53;99933.72;;;8.13;73.45
37298;BME280;30517;51.932;4.278;2024-02-26T01:08:35;99943.47;;;7.90;74.19
37298;BME280;30517;51.932;4.278;2024-02-26T01:11:17;99951.34;;;7.94;74.17
37298;BME280;30517;51.932;4.278;2024-02-26T01:13:58;99946.94;;;8.00;74.00
37298;BME280;30517;51.932;4.278;2024-02-26T01:16:40;99893.78;;;7.58;74.49
37298;BME280;30517;51.932;4.278;2024-02-26T01:19:21;99951.25;;;8.07;74.25
37298;BME280;30517;51.932;4.278;2024-02-26T01:22:02;99946.94;;;7.95;74.40
37298;BME280;30517;51.932;4.278;2024-02-26T01:24:44;99936.38;;;8.04;73.60
37298;BME280;30517;51.932;4.278;2024-02-26T01:27:25;99939.13;;;7.87;74.27
37298;BME280;30517;51.932;4.278;2024-02-26T01:30:08;99885.97;;;7.44;74.80
37298;BME280;30517;51.932;4.278;2024-02-26T01:32:49;99940.94;;;7.73;74.81
37298;BME280;30517;51.932;4.278;2024-02-26T01:35:30;99895.56;;;7.48;75.07
37298;BME280;30517;51.932;4.278;2024-02-26T01:38:12;99940.94;;;7.73;75.06
37298;BME280;30517;51.932;4.278;2024-02-26T01:40:53;99948.59;;;8.10;73.28
37298;BME280;30517;51.932;4.278;2024-02-26T01:43:35;99931.19;;;7.93;74.04
37298;BME280;30517;51.932;4.278;2024-02-26T01:46:17;99946.13;;;7.82;74.74
37298;BME280;30517;51.932;4.278;2024-02-26T01:49:02;99961.09;;;7.72;74.81
37298;BME280;30517;51.932;4.278;2024-02-26T01:51:44;99916.59;;;7.39;74.70
37298;BME280;30517;51.932;4.278;2024-02-26T01:54:26;99968.06;;;7.75;74.60
37298;BME280;30517;51.932;4.278;2024-02-26T01:57:08;99980.31;;;7.71;75.47
37298;BME280;30517;51.932;4.278;2024-02-26T01:59:50;99987.34;;;7.68;75.23
37298;BME280;30517;51.932;4.278;2024-02-26T02:02:31;99931.47;;;7.37;74.66
37298;BME280;30517;51.932;4.278;2024-02-26T02:05:17;99957.59;;;7.61;74.26
37298;BME280;30517;51.932;4.278;2024-02-26T02:07:58;99985.53;;;7.79;74.96
37298;BME280;30517;51.932;4.278;2024-02-26T02:10:42;99976.00;;;7.63;74.89
37298;BME280;30517;51.932;4.278;2024-02-26T02:13:23;99987.38;;;7.65;74.94
37298;BME280;30517;51.932;4.278;2024-02-26T02:16:04;99935.03;;;7.25;75.20
37298;BME280;30517;51.932;4.278;2024-02-26T02:18:45;99982.88;;;7.85;75.04
37298;BME280;30517;51.932;4.278;2024-02-26T02:21:26;99955.03;;;7.47;75.06
37298;BME280;30517;51.932;4.278;2024-02-26T02:24:08;99975.13;;;7.58;75.88
37298;BME280;30517;51.932;4.278;2024-02-26T02:26:49;99934.16;;;7.21;75.52
37298;BME280;30517;51.932;4.278;2024-02-26T02:29:31;100000.47;;;7.66;75.46
37298;BME280;30517;51.932;4.278;2024-02-26T02:32:16;99969.06;;;7.51;75.50
37298;BME280;30517;51.932;4.278;2024-02-26T02:34:58;99989.16;;;7.52;75.62
37298;BME280;30517;51.932;4.278;2024-02-26T02:37:42;100009.22;;;7.65;74.92
37298;BME280;30517;51.932;4.278;2024-02-26T02:40:26;100019.69;;;7.67;75.56
37298;BME280;30517;51.932;4.278;2024-02-26T02:43:07;100024.09;;;7.68;75.23
37298;BME280;30517;51.932;4.278;2024-02-26T02:45:49;100024.09;;;7.63;75.36
37298;BME280;30517;51.932;4.278;2024-02-26T02:48:30;100011.00;;;7.60;75.48
37298;BME280;30517;51.932;4.278;2024-02-26T02:51:11;100030.22;;;7.61;75.01
37298;BME280;30517;51.932;4.278;2024-02-26T02:53:53;100027.59;;;7.61;75.65
37298;BME280;30517;51.932;4.278;2024-02-26T02:56:35;100018.00;;;7.58;75.44
37298;BME280;30517;51.932;4.278;2024-02-26T02:59:17;100021.47;;;7.65;75.10
37298;BME280;30517;51.932;4.278;2024-02-26T03:01:58;100008.41;;;7.51;75.49
37298;BME280;30517;51.932;4.278;2024-02-26T03:04:39;100026.75;;;7.62;75.46
37298;BME280;30517;51.932;4.278;2024-02-26T03:07:20;100039.88;;;7.60;75.16
37298;BME280;30517;51.932;4.278;2024-02-26T03:10:02;99989.19;;;7.34;75.17
37298;BME280;30517;51.932;4.278;2024-02-26T03:12:43;100044.22;;;7.63;75.31
37298;BME280;30517;51.932;4.278;2024-02-26T03:15:26;100027.66;;;7.51;75.50
37298;BME280;30517;51.932;4.278;2024-02-26T03:18:07;100041.59;;;7.66;75.67
37298;BME280;30517;51.932;4.278;2024-02-26T03:20:49;100045.09;;;7.72;75.01
37298;BME280;30517;51.932;4.278;2024-02-26T03:23:30;100000.56;;;7.31;75.20
37298;BME280;30517;51.932;4.278;2024-02-26T03:26:12;100046.91;;;7.46;75.22
37298;BME280;30517;51.932;4.278;2024-02-26T03:28:54;100053.03;;;7.51;75.88
37298;BME280;30517;51.932;4.278;2024-02-26T03:31:35;100049.47;;;7.58;75.48
37298;BME280;30517;51.932;4.278;2024-02-26T03:34:16;99987.47;;;7.25;75.39
37298;BME280;30517;51.932;4.278;2024-02-26T03:36:58;100032.91;;;7.48;75.07
37298;BME280;30517;51.932;4.278;2024-02-26T03:39:39;100046.00;;;7.58;75.36
37298;BME280;30517;51.932;4.278;2024-02-26T03:42:20;100001.47;;;7.25;75.39
37298;BME280;30517;51.932;4.278;2024-02-26T03:45:01;100053.00;;;7.56;75.54
37298;BME280;30517;51.932;4.278;2024-02-26T03:47:42;100042.50;;;7.54;75.11
37298;BME280;30517;51.932;4.278;2024-02-26T03:50:23;100023.28;;;7.40;75.35
37298;BME280;30517;51.932;4.278;2024-02-26T03:53:04;100003.22;;;7.22;75.65
37298;BME280;30517;51.932;4.278;2024-02-26T03:55:45;100053.91;;;7.45;75.33
37298;BME280;30517;51.932;4.278;2024-02-26T03:58:26;100063.50;;;7.52;75.69
37298;BME280;30517;51.932;4.278;2024-02-26T04:01:07;100060.00;;;7.57;75.59
37298;BME280;30517;51.932;4.278;2024-02-26T04:03:49;100060.88;;;7.49;75.49
37298;BME280;30517;51.932;4.278;2024-02-26T04:06:30;100024.22;;;7.25;75.43
37298;BME280;30517;51.932;4.278;2024-02-26T04:09:11;100066.16;;;7.46;75.37
37298;BME280;30517;51.932;4.278;2024-02-26T04:11:52;100000.63;;;7.06;75.29
37298;BME280;30517;51.932;4.278;2024-02-26T04:14:33;100094.13;;;7.55;75.67
37298;BME280;30517;51.932;4.278;2024-02-26T04:17:14;100035.56;;;7.21;75.60
37298;BME280;30517;51.932;4.278;2024-02-26T04:19:54;100085.38;;;7.59;74.67
37298;BME280;30517;51.932;4.278;2024-02-26T04:22:35;100060.91;;;7.34;75.10
37298;BME280;30517;51.932;4.278;2024-02-26T04:25:16;100079.25;;;7.46;75.34
37298;BME280;30517;51.932;4.278;2024-02-26T04:27:57;100073.16;;;7.38;75.59
37298;BME280;30517;51.932;4.278;2024-02-26T04:30:38;100085.38;;;7.51;75.31
37298;BME280;30517;51.932;4.278;2024-02-26T04:33:19;100020.75;;;7.11;75.18
37298;BME280;30517;51.932;4.278;2024-02-26T04:35:59;100088.88;;;7.41;75.52
37298;BME280;30517;51.932;4.278;2024-02-26T04:38:41;100080.13;;;7.47;75.56
37298;BME280;30517;51.932;4.278;2024-02-26T04:41:21;100098.50;;;7.47;75.63
37298;BME280;30517;51.932;4.278;2024-02-26T04:44:02;100044.34;;;7.17;75.90
37298;BME280;30517;51.932;4.278;2024-02-26T04:46:43;100025.97;;;7.06;75.30
37298;BME280;30517;51.932;4.278;2024-02-26T04:49:24;100033.84;;;7.14;75.32
37298;BME280;30517;51.932;4.278;2024-02-26T04:52:05;100090.63;;;7.47;75.34
37298;BME280;30517;51.932;4.278;2024-02-26T04:54:46;100102.00;;;7.57;74.87
37298;BME280;30517;51.932;4.278;2024-02-26T04:57:27;100096.75;;;7.44;75.51
37298;BME280;30517;51.932;4.278;2024-02-26T05:00:08;100106.38;;;7.54;75.32
37298;BME280;30517;51.932;4.278;2024-02-26T05:02:49;100107.25;;;7.52;74.98
37298;BME280;30517;51.932;4.278;2024-02-26T05:05:30;100116.88;;;7.45;75.34
37298;BME280;30517;51.932;4.278;2024-02-26T05:08:11;100126.47;;;7.48;75.45
37298;BME280;30517;51.932;4.278;2024-02-26T05:10:52;100120.38;;;7.40;75.39
37298;BME280;30517;51.932;4.278;2024-02-26T05:13:33;100109.88;;;7.41;74.96
37298;BME280;30517;51.932;4.278;2024-02-26T05:16:14;100085.41;;;7.07;75.71
37298;BME280;30517;51.932;4.278;2024-02-26T05:18:54;100055.69;;;7.14;75.32
37298;BME280;30517;51.932;4.278;2024-02-26T05:21:35;100132.63;;;7.45;75.42
37298;BME280;30517;51.932;4.278;2024-02-26T05:24:16;100127.38;;;7.41;75.65
37298;BME280;30517;51.932;4.278;2024-02-26T05:26:57;100136.13;;;7.49;75.57
37298;BME280;30517;51.932;4.278;2024-02-26T05:29:38;100130.84;;;7.47;75.01
37298;BME280;30517;51.932;4.278;2024-02-26T05:32:19;100120.34;;;7.67;70.95
37298;BME280;30517;51.932;4.278;2024-02-26T05:35:00;100120.34;;;7.55;72.10
37298;BME280;30517;51.932;4.278;2024-02-26T05:37:43;100102.03;;;7.38;72.43
37298;BME280;30517;51.932;4.278;2024-02-26T05:40:24;100071.44;;;7.26;72.11
37298;BME280;30517;51.932;4.278;2024-02-26T05:43:04;100136.09;;;7.67;73.06
37298;BME280;30517;51.932;4.278;2024-02-26T05:45:46;100081.91;;;7.28;73.24
37298;BME280;30517;51.932;4.278;2024-02-26T05:48:26;100143.97;;;7.44;73.40
37298;BME280;30517;51.932;4.278;2024-02-26T05:51:07;100076.69;;;6.97;73.68
37298;BME280;30517;51.932;4.278;2024-02-26T05:53:48;100158.88;;;7.33;74.15
37298;BME280;30517;51.932;4.278;2024-02-26T05:56:33;100097.66;;;6.96;73.86
37298;BME280;30517;51.932;4.278;2024-02-26T05:59:14;100173.72;;;7.31;74.63
37298;BME280;30517;51.932;4.278;2024-02-26T06:01:56;100192.09;;;7.31;74.42
37298;BME280;30517;51.932;4.278;2024-02-26T06:04:36;100138.72;;;7.04;75.06
37298;BME280;30517;51.932;4.278;2024-02-26T06:07:17;100151.84;;;6.97;74.84
37298;BME280;30517;51.932;4.278;2024-02-26T06:09:58;100177.22;;;7.19;74.53
37298;BME280;30517;51.932;4.278;2024-02-26T06:12:39;100217.47;;;7.32;74.75
37298;BME280;30517;51.932;4.278;2024-02-26T06:15:20;100154.47;;;7.01;74.92
37298;BME280;30517;51.932;4.278;2024-02-26T06:18:01;100193.84;;;7.24;74.31
37298;BME280;30517;51.932;4.278;2024-02-26T06:20:42;100213.06;;;7.34;74.62
37298;BME280;30517;51.932;4.278;2024-02-26T06:23:23;100209.56;;;7.26;75.06
37298;BME280;30517;51.932;4.278;2024-02-26T06:26:04;100226.19;;;7.34;74.22
37298;BME280;30517;51.932;4.278;2024-02-26T06:28:45;100227.06;;;7.31;73.79
37298;BME280;30517;51.932;4.278;2024-02-26T06:31:26;100156.22;;;6.89;74.14
37298;BME280;30517;51.932;4.278;2024-02-26T06:34:07;100224.47;;;7.27;74.30
37298;BME280;30517;51.932;4.278;2024-02-26T06:36:48;100170.19;;;6.98;74.45
37298;BME280;30517;51.932;4.278;2024-02-26T06:39:29;100217.44;;;7.23;74.30
37298;BME280;30517;51.932;4.278;2024-02-26T06:42:10;100241.94;;;7.31;74.87
37298;BME280;30517;51.932;4.278;2024-02-26T06:44:51;100186.81;;;7.00;74.62
37298;BME280;30517;51.932;4.278;2024-02-26T06:47:31;100252.44;;;7.34;74.21
37298;BME280;30517;51.932;4.278;2024-02-26T06:50:12;100262.06;;;7.35;74.38
37298;BME280;30517;51.932;4.278;2024-02-26T06:52:56;100260.31;;;7.37;74.72
37298;BME280;30517;51.932;4.278;2024-02-26T06:55:37;100260.28;;;7.31;74.47
37298;BME280;30517;51.932;4.278;2024-02-26T06:58:20;100262.06;;;7.35;74.20
37298;BME280;30517;51.932;4.278;2024-02-26T07:01:01;100220.94;;;7.11;74.02
37298;BME280;30517;51.932;4.278;2024-02-26T07:03:42;100273.41;;;7.34;74.42
37298;BME280;30517;51.932;4.278;2024-02-26T07:06:22;100276.03;;;7.31;74.88
37298;BME280;30517;51.932;4.278;2024-02-26T07:09:03;100229.66;;;7.02;74.76
37298;BME280;30517;51.932;4.278;2024-02-26T07:11:44;100273.44;;;7.26;74.59
37298;BME280;30517;51.932;4.278;2024-02-26T07:14:25;100318.91;;;7.30;74.95
37298;BME280;30517;51.932;4.278;2024-02-26T07:17:06;100300.53;;;7.27;74.73
37298;BME280;30517;51.932;4.278;2024-02-26T07:19:46;100301.38;;;7.17;75.14
37298;BME280;30517;51.932;4.278;2024-02-26T07:22:27;100253.22;;;6.89;75.01
37298;BME280;30517;51.932;4.278;2024-02-26T07:25:08;100308.41;;;7.27;74.63
37298;BME280;30517;51.932;4.278;2024-02-26T07:27:53;100295.25;;;7.18;74.50
37298;BME280;30517;51.932;4.278;2024-02-26T07:30:34;100321.50;;;7.22;74.79
37298;BME280;30517;51.932;4.278;2024-02-26T07:33:14;100309.28;;;7.24;74.76
37298;BME280;30517;51.932;4.278;2024-02-26T07:35:55;100331.13;;;7.31;74.56
37298;BME280;30517;51.932;4.278;2024-02-26T07:38:36;100277.69;;;6.92;74.62
37298;BME280;30517;51.932;4.278;2024-02-26T07:41:17;100290.84;;;7.03;74.90
37298;BME280;30517;51.932;4.278;2024-02-26T07:43:58;100316.22;;;7.18;74.80
37298;BME280;30517;51.932;4.278;2024-02-26T07:46:39;100343.38;;;7.29;74.55
37298;BME280;30517;51.932;4.278;2024-02-26T07:49:20;100348.63;;;7.27;74.73
37298;BME280;30517;51.932;4.278;2024-02-26T07:52:01;100350.38;;;7.27;75.14
37298;BME280;30517;51.932;4.278;2024-02-26T07:54:41;100374.03;;;7.44;74.16
37298;BME280;30517;51.932;4.278;2024-02-26T07:57:22;100352.13;;;7.28;74.55
37298;BME280;30517;51.932;4.278;2024-02-26T08:00:04;100369.59;;;7.24;74.93
37298;BME280;30517;51.932;4.278;2024-02-26T08:02:47;100342.41;;;7.04;74.59
37298;BME280;30517;51.932;4.278;2024-02-26T08:05:28;100318.78;;;6.92;74.69
37298;BME280;30517;51.932;4.278;2024-02-26T08:08:09;100371.34;;;7.25;75.05
37298;BME280;30517;51.932;4.278;2024-02-26T08:10:50;100378.38;;;7.26;75.38
37298;BME280;30517;51.932;4.278;2024-02-26T08:13:30;100382.72;;;7.30;74.73
37298;BME280;30517;51.932;4.278;2024-02-26T08:16:11;100388.84;;;7.28;74.93
37298;BME280;30517;51.932;4.278;2024-02-26T08:18:53;100379.22;;;7.25;74.78
37298;BME280;30517;51.932;4.278;2024-02-26T08:21:33;100394.97;;;7.28;74.30
37298;BME280;30517;51.932;4.278;2024-02-26T08:24:14;100391.47;;;7.28;74.67
37298;BME280;30517;51.932;4.278;2024-02-26T08:26:55;100380.94;;;7.17;74.77
37298;BME280;30517;51.932;4.278;2024-02-26T08:29:36;100400.22;;;7.27;74.57
37298;BME280;30517;51.932;4.278;2024-02-26T08:32:17;100406.28;;;7.20;74.75
37298;BME280;30517;51.932;4.278;2024-02-26T08:34:58;100422.06;;;7.27;74.92
37298;BME280;30517;51.932;4.278;2024-02-26T08:37:39;100412.44;;;7.23;74.83
37298;BME280;30517;51.932;4.278;2024-02-26T08:40:20;100430.81;;;7.28;75.25
37298;BME280;30517;51.932;4.278;2024-02-26T08:43:01;100359.84;;;6.90;74.67
37298;BME280;30517;51.932;4.278;2024-02-26T08:45:41;100436.06;;;7.28;74.89
37298;BME280;30517;51.932;4.278;2024-02-26T08:48:22;100380.84;;;6.94;74.80
37298;BME280;30517;51.932;4.278;2024-02-26T08:51:07;100422.00;;;7.07;75.17
37298;BME280;30517;51.932;4.278;2024-02-26T08:53:48;100429.88;;;7.18;75.39
37298;BME280;30517;51.932;4.278;2024-02-26T08:56:30;100448.34;;;7.35;74.67
37298;BME280;30517;51.932;4.278;2024-02-26T08:59:11;100442.19;;;7.30;74.55
37298;BME280;30517;51.932;4.278;2024-02-26T09:01:52;100449.13;;;7.16;75.07
37298;BME280;30517;51.932;4.278;2024-02-26T09:04:33;100454.38;;;7.17;74.99
37298;BME280;30517;51.932;4.278;2024-02-26T09:07:14;100407.91;;;6.89;75.18
37298;BME280;30517;51.932;4.278;2024-02-26T09:09:54;100426.22;;;6.85;74.98
37298;BME280;30517;51.932;4.278;2024-02-26T09:12:37;100455.22;;;7.12;75.12
37298;BME280;30517;51.932;4.278;2024-02-26T09:15:18;100471.91;;;7.29;74.52
37298;BME280;30517;51.932;4.278;2024-02-26T09:17:59;100478.88;;;7.21;75.09
37298;BME280;30517;51.932;4.278;2024-02-26T09:20:40;100488.50;;;7.22;75.16
37298;BME280;30517;51.932;4.278;2024-02-26T09:23:20;100497.28;;;7.27;75.07
37298;BME280;30517;51.932;4.278;2024-02-26T09:26:01;100491.16;;;7.25;74.96
37298;BME280;30517;51.932;4.278;2024-02-26T09:28:43;100455.09;;;6.93;74.67
37298;BME280;30517;51.932;4.278;2024-02-26T09:31:24;100455.13;;;6.96;75.00
37298;BME280;30517;51.932;4.278;2024-02-26T09:34:04;100505.09;;;7.21;74.57
37298;BME280;30517;51.932;4.278;2024-02-26T09:36:45;100509.50;;;7.25;74.74
37298;BME280;30517;51.932;4.278;2024-02-26T09:39:26;100507.78;;;7.24;74.89
37298;BME280;30517;51.932;4.278;2024-02-26T09:42:09;100457.72;;;6.93;74.80
37298;BME280;30517;51.932;4.278;2024-02-26T09:44:54;100531.41;;;7.30;74.57
37298;BME280;30517;51.932;4.278;2024-02-26T09:47:38;100520.03;;;7.31;74.63
37298;BME280;30517;51.932;4.278;2024-02-26T09:50:20;100505.03;;;7.10;74.92
37298;BME280;30517;51.932;4.278;2024-02-26T09:53:06;100537.53;;;7.30;75.17
37298;BME280;30517;51.932;4.278;2024-02-26T09:55:50;100478.72;;;6.96;74.73
37298;BME280;30517;51.932;4.278;2024-02-26T09:58:31;100541.94;;;7.35;74.93
37298;BME280;30517;51.932;4.278;2024-02-26T10:01:15;100492.69;;;6.94;75.07
37298;BME280;30517;51.932;4.278;2024-02-26T10:03:57;100460.22;;;6.75;74.75
37298;BME280;30517;51.932;4.278;2024-02-26T10:06:39;100493.53;;;6.91;75.14
37298;BME280;30517;51.932;4.278;2024-02-26T10:09:20;100565.50;;;7.31;75.06
37298;BME280;30517;51.932;4.278;2024-02-26T10:12:02;100523.31;;;6.99;75.12
37298;BME280;30517;51.932;4.278;2024-02-26T10:14:43;100546.19;;;7.20;75.13
37298;BME280;30517;51.932;4.278;2024-02-26T10:17:24;100518.94;;;6.98;75.15
37298;BME280;30517;51.932;4.278;2024-02-26T10:20:16;100600.53;;;7.32;74.84
37298;BME280;30517;51.932;4.278;2024-02-26T10:22:58;100576.00;;;7.30;74.84
37298;BME280;30517;51.932;4.278;2024-02-26T10:25:52;100599.63;;;7.33;74.79
37298;BME280;30517;51.932;4.278;2024-02-26T10:28:33;100536.50;;;7.08;74.64
37298;BME280;30517;51.932;4.278;2024-02-26T10:31:14;100581.22;;;7.28;74.87
37298;BME280;30517;51.932;4.278;2024-02-26T10:33:55;100587.34;;;7.29;74.98
37298;BME280;30517;51.932;4.278;2024-02-26T10:36:37;100524.97;;;6.85;75.15
37298;BME280;30517;51.932;4.278;2024-02-26T10:39:21;100620.69;;;7.41;74.74
37298;BME280;30517;51.932;4.278;2024-02-26T10:42:02;100552.22;;;7.02;75.14
37298;BME280;30517;51.932;4.278;2024-02-26T10:44:47;100542.50;;;6.94;75.09
37298;BME280;30517;51.932;4.278;2024-02-26T10:47:29;100555.69;;;7.00;74.63
37298;BME280;30517;51.932;4.278;2024-02-26T10:50:12;100640.78;;;7.37;75.19
37298;BME280;30517;51.932;4.278;2024-02-26T10:52:55;100618.88;;;7.34;75.29
37298;BME280;30517;51.932;4.278;2024-02-26T10:55:36;100625.94;;;7.41;74.85
37298;BME280;30517;51.932;4.278;2024-02-26T10:58:18;100630.28;;;7.36;74.88
37298;BME280;30517;51.932;4.278;2024-02-26T11:00:59;100582.81;;;7.03;74.91
37298;BME280;30517;51.932;4.278;2024-02-26T11:03:41;100650.38;;;7.32;75.33
37298;BME280;30517;51.932;4.278;2024-02-26T11:06:22;100650.38;;;7.34;74.77
37298;BME280;30517;51.932;4.278;2024-02-26T11:09:04;100667.03;;;7.37;74.94
37298;BME280;30517;51.932;4.278;2024-02-26T11:11:45;100665.25;;;7.36;74.89
37298;BME280;30517;51.932;4.278;2024-02-26T11:14:29;100629.97;;;7.02;75.04
37298;BME280;30517;51.932;4.278;2024-02-26T11:17:12;100649.44;;;7.27;75.06
37298;BME280;30517;51.932;4.278;2024-02-26T11:19:55;100674.06;;;7.43;74.78
37298;BME280;30517;51.932;4.278;2024-02-26T11:22:38;100618.69;;;7.09;74.96
37298;BME280;30517;51.932;4.278;2024-02-26T11:25:19;100673.09;;;7.33;74.72
37298;BME280;30517;51.932;4.278;2024-02-26T11:28:04;100664.28;;;7.22;75.50
37298;BME280;30517;51.932;4.278;2024-02-26T11:30:48;100693.31;;;7.43;75.05
37298;BME280;30517;51.932;4.278;2024-02-26T11:33:30;100680.09;;;7.34;74.62
37298;BME280;30517;51.932;4.278;2024-02-26T11:36:11;100694.97;;;7.34;74.74
37298;BME280;30517;51.932;4.278;2024-02-26T11:38:55;100694.06;;;7.31;75.20
37298;BME280;30517;51.932;4.278;2024-02-26T11:41:36;100709.00;;;7.39;75.43
37298;BME280;30517;51.932;4.278;2024-02-26T11:44:28;100688.03;;;7.39;75.11
37298;BME280;30517;51.932;4.278;2024-02-26T11:49:51;100688.91;;;7.38;75.00
37298;BME280;30517;51.932;4.278;2024-02-26T11:52:32;100708.19;;;7.47;74.67
37298;BME280;30517;51.932;4.278;2024-02-26T11:55:31;100692.38;;;7.35;75.12
37298;BME280;30517;51.932;4.278;2024-02-26T11:58:12;100704.72;;;7.48;74.84
37298;BME280;30517;51.932;4.278;2024-02-26T12:00:57;100699.41;;;7.42;75.03
37298;BME280;30517;51.932;4.278;2024-02-26T12:03:38;100660.72;;;7.14;74.93
37298;BME280;30517;51.932;4.278;2024-02-26T12:06:19;100712.53;;;7.42;74.99
37298;BME280;30517;51.932;4.278;2024-02-26T12:09:01;100664.19;;;7.14;74.70
37298;BME280;30517;51.932;4.278;2024-02-26T12:11:42;100658.88;;;7.05;75.22
37298;BME280;30517;51.932;4.278;2024-02-26T12:14:26;100697.59;;;7.32;75.30
37298;BME280;30517;51.932;4.278;2024-02-26T12:17:19;100682.53;;;7.13;74.95
37298;BME280;30517;51.932;4.278;2024-02-26T12:20:10;100725.72;;;7.45;75.29
37298;BME280;30517;51.932;4.278;2024-02-26T12:22:52;100741.53;;;7.58;74.06
37298;BME280;30517;51.932;4.278;2024-02-26T12:25:35;100743.19;;;7.48;74.71
37298;BME280;30517;51.932;4.278;2024-02-26T12:28:16;100738.94;;;7.61;74.41
37298;BME280;30517;51.932;4.278;2024-02-26T12:30:58;100752.81;;;7.47;74.92
37298;BME280;30517;51.932;4.278;2024-02-26T12:33:39;100727.31;;;7.34;74.78
37298;BME280;30517;51.932;4.278;2024-02-26T12:36:21;100683.38;;;7.05;75.03
37298;BME280;30517;51.932;4.278;2024-02-26T12:39:03;100745.78;;;7.40;75.12
37298;BME280;30517;51.932;4.278;2024-02-26T12:41:46;100755.53;;;7.57;74.66
37298;BME280;30517;51.932;4.278;2024-02-26T12:44:31;100736.19;;;7.44;74.66
37298;BME280;30517;51.932;4.278;2024-02-26T12:47:12;100688.84;;;7.33;74.34
37298;BME280;30517;51.932;4.278;2024-02-26T12:49:56;100704.44;;;7.16;74.59
37298;BME280;30517;51.932;4.278;2024-02-26T12:52:43;100679.06;;;7.15;74.58
37298;BME280;30517;51.932;4.278;2024-02-26T12:55:25;100764.13;;;7.39;74.77
37298;BME280;30517;51.932;4.278;2024-02-26T12:58:06;100680.59;;;6.90;74.79
37298;BME280;30517;51.932;4.278;2024-02-26T13:00:47;100727.22;;;7.23;74.94
37298;BME280;30517;51.932;4.278;2024-02-26T13:03:29;100780.91;;;7.58;74.21
37298;BME280;30517;51.932;4.278;2024-02-26T13:06:11;100718.44;;;7.18;75.02
37298;BME280;30517;51.932;4.278;2024-02-26T13:08:56;100751.78;;;7.28;74.57
37298;BME280;30517;51.932;4.278;2024-02-26T13:11:41;100793.16;;;7.59;74.88
37298;BME280;30517;51.932;4.278;2024-02-26T13:14:23;100736.81;;;7.20;74.50
37298;BME280;30517;51.932;4.278;2024-02-26T13:17:04;100802.78;;;7.57;74.93
37298;BME280;30517;51.932;4.278;2024-02-26T13:19:51;100742.03;;;7.18;74.93
37298;BME280;30517;51.932;4.278;2024-02-26T13:22:32;100760.66;;;7.41;74.69
37298;BME280;30517;51.932;4.278;2024-02-26T13:25:20;100793.13;;;7.52;74.54
37298;BME280;30517;51.932;4.278;2024-02-26T13:28:15;100819.41;;;7.57;74.65
37298;BME280;30517;51.932;4.278;2024-02-26T13:30:57;100821.16;;;7.57;74.55
37298;BME280;30517;51.932;4.278;2024-02-26T13:33:38;100819.44;;;7.60;74.73
37298;BME280;30517;51.932;4.278;2024-02-26T13:36:19;100813.25;;;7.52;74.42
37298;BME280;30517;51.932;4.278;2024-02-26T13:38:59;100824.59;;;7.52;75.30
37298;BME280;30517;51.932;4.278;2024-02-26T13:41:41;100820.34;;;7.64;74.44
37298;BME280;30517;51.932;4.278;2024-02-26T13:44:23;100774.50;;;7.28;74.82
37298;BME280;30517;51.932;4.278;2024-02-26T13:47:04;100843.09;;;7.63;74.37
37298;BME280;30517;51.932;4.278;2024-02-26T13:49:45;100829.06;;;7.60;74.90
37298;BME280;30517;51.932;4.278;2024-02-26T13:52:27;100837.75;;;7.52;74.85
37298;BME280;30517;51.932;4.278;2024-02-26T13:55:08;100835.22;;;7.62;75.10
37298;BME280;30517;51.932;4.278;2024-02-26T13:57:49;100848.34;;;7.63;74.59
37298;BME280;30517;51.932;4.278;2024-02-26T14:00:31;100839.53;;;7.58;75.25
37298;BME280;30517;51.932;4.278;2024-02-26T14:03:13;100855.28;;;7.57;74.45
37298;BME280;30517;51.932;4.278;2024-02-26T14:05:54;100851.84;;;7.62;74.33
37298;BME280;30517;51.932;4.278;2024-02-26T14:08:37;100806.03;;;7.31;74.54
37298;BME280;30517;51.932;4.278;2024-02-26T14:11:17;100800.78;;;7.29;74.97
37298;BME280;30517;51.932;4.278;2024-02-26T14:13:58;100864.16;;;7.69;75.03
37298;BME280;30517;51.932;4.278;2024-02-26T14:16:39;100860.03;;;7.97;73.78
37298;BME280;30517;51.932;4.278;2024-02-26T14:19:20;100826.25;;;7.41;74.69
37298;BME280;30517;51.932;4.278;2024-02-26T14:22:01;100881.69;;;7.72;74.90